TAM2455 SBGO-SBCF
Flight info
| Callsign | TAM2455 |
|---|---|
| Flight time | 0h 58m |
| Altitude | 38000 |
| Route | ESBOD UZ31 ILPAV DCT VULAD |
| Aircraft | A20N/M-SDE2E3FGHIRWXY/LB1 |
Departure
| Time | 2026-05-05 23:32 |
|---|---|
| Airport | Santa Genoveva International Airport (SBGO) |
Arrival
| Time | 2026-05-06 00:30 |
|---|---|
| Airport | Tancredo Neves International Airport (SBCF) |
| Time | Latitude | Longitude | Altitude | Speed | Heading |
|---|---|---|---|---|---|
| 2026-05-05 22:03 | -16.63038 | -49.21481 | 2462 ft | 0 kts | 49° |
| 2026-05-05 22:59 | -16.63042 | -49.21487 | 2462 ft | 2 kts | 49° |
| 2026-05-05 22:59 | -16.63053 | -49.21500 | 2465 ft | 2 kts | 48° |
| 2026-05-05 23:00 | -16.63077 | -49.21524 | 2462 ft | 2 kts | 34° |
| 2026-05-05 23:00 | -16.63092 | -49.21529 | 2465 ft | 2 kts | 321° |
| 2026-05-05 23:00 | -16.63098 | -49.21523 | 2465 ft | 0 kts | 314° |
| 2026-05-05 23:10 | -16.63087 | -49.21534 | 2462 ft | 5 kts | 316° |
| 2026-05-05 23:11 | -16.63034 | -49.21575 | 2462 ft | 14 kts | 329° |
| 2026-05-05 23:11 | -16.62945 | -49.21621 | 2463 ft | 10 kts | 337° |
| 2026-05-05 23:11 | -16.62924 | -49.21702 | 2459 ft | 17 kts | 259° |
| 2026-05-05 23:11 | -16.62961 | -49.21865 | 2456 ft | 29 kts | 256° |
| 2026-05-05 23:12 | -16.62980 | -49.21963 | 2444 ft | 13 kts | 258° |
| 2026-05-05 23:12 | -16.62992 | -49.22093 | 2448 ft | 21 kts | 274° |
| 2026-05-05 23:12 | -16.62930 | -49.22242 | 2452 ft | 25 kts | 301° |
| 2026-05-05 23:12 | -16.62843 | -49.22398 | 2455 ft | 22 kts | 300° |
| 2026-05-05 23:13 | -16.62762 | -49.22541 | 2460 ft | 25 kts | 304° |
| 2026-05-05 23:13 | -16.62663 | -49.22716 | 2463 ft | 31 kts | 300° |
| 2026-05-05 23:13 | -16.62589 | -49.22848 | 2458 ft | 0 kts | 298° |
| 2026-05-05 23:21 | -16.62585 | -49.22857 | 2461 ft | 5 kts | 298° |
| 2026-05-05 23:21 | -16.62582 | -49.22915 | 2455 ft | 9 kts | 225° |
| 2026-05-05 23:21 | -16.62607 | -49.22935 | 2455 ft | 0 kts | 212° |
| 2026-05-05 23:30 | -16.62617 | -49.22942 | 2457 ft | 5 kts | 212° |
| 2026-05-05 23:30 | -16.62644 | -49.22959 | 2458 ft | 0 kts | 211° |
| 2026-05-05 23:30 | -16.62645 | -49.22960 | 2458 ft | 1 kts | 211° |
| 2026-05-05 23:31 | -16.62683 | -49.22977 | 2459 ft | 11 kts | 196° |
| 2026-05-05 23:31 | -16.62701 | -49.22971 | 2457 ft | 5 kts | 151° |
| 2026-05-05 23:31 | -16.62739 | -49.22922 | 2460 ft | 13 kts | 121° |
| 2026-05-05 23:31 | -16.62843 | -49.22738 | 2461 ft | 61 kts | 121° |
| 2026-05-05 23:32 | -16.63172 | -49.22150 | 2454 ft | 124 kts | 120° |
| 2026-05-05 23:32 | -16.63685 | -49.21243 | 2559 ft | 159 kts | 122° |
| 2026-05-05 23:32 | -16.64256 | -49.20245 | 3120 ft | 158 kts | 122° |
| 2026-05-05 23:32 | -16.64797 | -49.19274 | 3803 ft | 153 kts | 122° |
| 2026-05-05 23:33 | -16.65361 | -49.18261 | 4180 ft | 170 kts | 122° |
| 2026-05-05 23:33 | -16.65992 | -49.17134 | 4567 ft | 190 kts | 122° |
| 2026-05-05 23:33 | -16.66721 | -49.15897 | 5014 ft | 210 kts | 131° |
| 2026-05-05 23:33 | -16.67942 | -49.15030 | 5506 ft | 225 kts | 166° |
| 2026-05-05 23:34 | -16.69551 | -49.14988 | 6047 ft | 243 kts | 197° |
| 2026-05-05 23:34 | -16.71056 | -49.15880 | 6728 ft | 258 kts | 226° |
| 2026-05-05 23:34 | -16.72244 | -49.17313 | 7732 ft | 263 kts | 230° |
| 2026-05-05 23:34 | -16.73318 | -49.18447 | 8616 ft | 266 kts | 222° |
| 2026-05-05 23:35 | -16.74831 | -49.19583 | 9641 ft | 271 kts | 212° |
| 2026-05-05 23:35 | -16.76525 | -49.20491 | 10648 ft | 276 kts | 206° |
| 2026-05-05 23:35 | -16.78375 | -49.21167 | 11377 ft | 294 kts | 191° |
| 2026-05-05 23:35 | -16.80479 | -49.21088 | 11779 ft | 322 kts | 168° |
| 2026-05-05 23:36 | -16.82602 | -49.20045 | 12306 ft | 344 kts | 144° |
| 2026-05-05 23:36 | -16.84205 | -49.18198 | 13159 ft | 353 kts | 123° |
| 2026-05-05 23:36 | -16.85174 | -49.15821 | 14006 ft | 360 kts | 109° |
| 2026-05-05 23:36 | -16.85933 | -49.13300 | 14825 ft | 365 kts | 110° |
| 2026-05-05 23:37 | -16.86818 | -49.10802 | 15632 ft | 369 kts | 114° |
| 2026-05-05 23:37 | -16.87873 | -49.08342 | 16412 ft | 373 kts | 117° |
| 2026-05-05 23:37 | -16.89019 | -49.05978 | 16727 ft | 371 kts | 118° |
| 2026-05-05 23:37 | -16.90242 | -49.03577 | 17361 ft | 377 kts | 119° |
| 2026-05-05 23:38 | -16.91500 | -49.01155 | 17999 ft | 381 kts | 120° |
| 2026-05-05 23:38 | -16.92770 | -48.98718 | 18628 ft | 385 kts | 120° |
| 2026-05-05 23:38 | -16.94041 | -48.96275 | 19214 ft | 388 kts | 120° |
| 2026-05-05 23:38 | -16.95331 | -48.93788 | 19812 ft | 391 kts | 120° |
| 2026-05-05 23:39 | -16.96630 | -48.91280 | 20399 ft | 394 kts | 120° |
| 2026-05-05 23:39 | -16.97940 | -48.88745 | 20991 ft | 397 kts | 120° |
| 2026-05-05 23:39 | -16.99259 | -48.86192 | 21582 ft | 401 kts | 120° |
| 2026-05-05 23:39 | -17.00583 | -48.83626 | 22147 ft | 404 kts | 120° |
| 2026-05-05 23:40 | -17.01928 | -48.81020 | 22735 ft | 407 kts | 121° |
| 2026-05-05 23:40 | -17.03279 | -48.78401 | 23316 ft | 411 kts | 121° |
| 2026-05-05 23:40 | -17.04643 | -48.75756 | 23850 ft | 414 kts | 121° |
| 2026-05-05 23:40 | -17.06012 | -48.73099 | 24309 ft | 418 kts | 121° |
| 2026-05-05 23:41 | -17.07399 | -48.70408 | 24766 ft | 422 kts | 121° |
| 2026-05-05 23:41 | -17.08796 | -48.67695 | 25214 ft | 426 kts | 121° |
| 2026-05-05 23:41 | -17.10203 | -48.64961 | 25648 ft | 430 kts | 121° |
| 2026-05-05 23:41 | -17.11629 | -48.62191 | 26084 ft | 433 kts | 121° |
| 2026-05-05 23:42 | -17.13062 | -48.59403 | 26500 ft | 437 kts | 122° |
| 2026-05-05 23:42 | -17.14509 | -48.56589 | 26921 ft | 441 kts | 122° |
| 2026-05-05 23:42 | -17.15969 | -48.53749 | 27340 ft | 444 kts | 122° |
| 2026-05-05 23:42 | -17.17420 | -48.50925 | 27727 ft | 448 kts | 122° |
| 2026-05-05 23:43 | -17.18899 | -48.48046 | 28128 ft | 452 kts | 122° |
| 2026-05-05 23:43 | -17.20392 | -48.45136 | 28529 ft | 455 kts | 122° |
| 2026-05-05 23:43 | -17.21891 | -48.42215 | 28897 ft | 458 kts | 122° |
| 2026-05-05 23:43 | -17.23406 | -48.39261 | 29263 ft | 462 kts | 122° |
| 2026-05-05 23:44 | -17.24932 | -48.36285 | 29628 ft | 465 kts | 123° |
| 2026-05-05 23:44 | -17.26471 | -48.33282 | 30003 ft | 468 kts | 123° |
| 2026-05-05 23:44 | -17.28013 | -48.30271 | 30359 ft | 472 kts | 123° |
| 2026-05-05 23:44 | -17.29559 | -48.27250 | 30755 ft | 473 kts | 123° |
| 2026-05-05 23:45 | -17.31101 | -48.24233 | 31166 ft | 473 kts | 123° |
| 2026-05-05 23:45 | -17.32651 | -48.21199 | 31652 ft | 472 kts | 124° |
| 2026-05-05 23:45 | -17.34181 | -48.18202 | 32207 ft | 469 kts | 124° |
| 2026-05-05 23:45 | -17.35716 | -48.15190 | 32779 ft | 465 kts | 124° |
| 2026-05-05 23:46 | -17.37232 | -48.12218 | 33319 ft | 462 kts | 125° |
| 2026-05-05 23:46 | -17.38740 | -48.09260 | 33888 ft | 458 kts | 125° |
| 2026-05-05 23:46 | -17.40223 | -48.06351 | 34373 ft | 455 kts | 126° |
| 2026-05-05 23:46 | -17.41713 | -48.03433 | 34729 ft | 455 kts | 126° |
| 2026-05-05 23:47 | -17.43205 | -48.00512 | 35043 ft | 455 kts | 126° |
| 2026-05-05 23:47 | -17.44701 | -47.97581 | 35370 ft | 455 kts | 126° |
| 2026-05-05 23:47 | -17.46187 | -47.94667 | 35685 ft | 455 kts | 126° |
| 2026-05-05 23:47 | -17.47676 | -47.91742 | 36005 ft | 455 kts | 126° |
| 2026-05-05 23:48 | -17.49168 | -47.88813 | 36323 ft | 455 kts | 126° |
| 2026-05-05 23:48 | -17.50655 | -47.85891 | 36628 ft | 455 kts | 126° |
| 2026-05-05 23:48 | -17.52149 | -47.82952 | 36940 ft | 455 kts | 126° |
| 2026-05-05 23:48 | -17.53616 | -47.80067 | 37226 ft | 455 kts | 126° |
| 2026-05-05 23:49 | -17.55101 | -47.77145 | 37503 ft | 454 kts | 126° |
| 2026-05-05 23:49 | -17.56587 | -47.74220 | 37775 ft | 454 kts | 126° |
| 2026-05-05 23:49 | -17.58072 | -47.71296 | 38043 ft | 454 kts | 126° |
| 2026-05-05 23:49 | -17.59562 | -47.68363 | 38173 ft | 457 kts | 127° |
| 2026-05-05 23:50 | -17.62587 | -47.62413 | 38166 ft | 465 kts | 126° |
| 2026-05-05 23:50 | -17.65608 | -47.56440 | 38168 ft | 463 kts | 127° |
| 2026-05-05 23:51 | -17.68632 | -47.50467 | 38171 ft | 464 kts | 126° |
| 2026-05-05 23:51 | -17.71639 | -47.44520 | 38171 ft | 464 kts | 126° |
| 2026-05-05 23:52 | -17.74667 | -47.38528 | 38169 ft | 464 kts | 126° |
| 2026-05-05 23:52 | -17.77689 | -47.32542 | 38171 ft | 464 kts | 126° |
| 2026-05-05 23:53 | -17.80685 | -47.26591 | 38170 ft | 454 kts | 127° |
| 2026-05-05 23:53 | -17.82420 | -47.23139 | 38163 ft | 449 kts | 127° |
| 2026-05-05 23:54 | -17.83855 | -47.20298 | 38170 ft | 452 kts | 127° |
| 2026-05-05 23:55 | -17.86804 | -47.14461 | 38166 ft | 452 kts | 127° |
| 2026-05-05 23:55 | -17.89742 | -47.08617 | 38168 ft | 452 kts | 127° |
| 2026-05-05 23:56 | -17.92678 | -47.02767 | 38171 ft | 452 kts | 127° |
| 2026-05-05 23:56 | -17.95589 | -46.96964 | 38168 ft | 452 kts | 127° |
| 2026-05-05 23:57 | -17.98519 | -46.91121 | 38161 ft | 452 kts | 127° |
| 2026-05-05 23:57 | -18.01446 | -46.85278 | 38162 ft | 452 kts | 127° |
| 2026-05-05 23:58 | -18.04375 | -46.79425 | 38163 ft | 451 kts | 127° |
| 2026-05-05 23:58 | -18.07290 | -46.73593 | 38158 ft | 450 kts | 127° |
| 2026-05-05 23:59 | -18.10198 | -46.67774 | 38162 ft | 450 kts | 127° |
| 2026-05-05 23:59 | -18.13113 | -46.61935 | 38175 ft | 452 kts | 127° |
| 2026-05-06 00:00 | -18.16034 | -46.56078 | 38181 ft | 452 kts | 127° |
| 2026-05-06 00:00 | -18.18954 | -46.50212 | 38178 ft | 452 kts | 127° |
| 2026-05-06 00:01 | -18.21849 | -46.44394 | 38166 ft | 451 kts | 127° |
| 2026-05-06 00:01 | -18.24761 | -46.38539 | 38192 ft | 452 kts | 127° |
| 2026-05-06 00:02 | -18.27676 | -46.32676 | 38195 ft | 452 kts | 127° |
| 2026-05-06 00:02 | -18.30592 | -46.26799 | 38201 ft | 452 kts | 127° |
| 2026-05-06 00:03 | -18.33486 | -46.20963 | 38190 ft | 453 kts | 127° |
| 2026-05-06 00:03 | -18.36397 | -46.15085 | 38202 ft | 452 kts | 127° |
| 2026-05-06 00:04 | -18.39313 | -46.09190 | 38202 ft | 452 kts | 127° |
| 2026-05-06 00:04 | -18.41725 | -46.04310 | 38196 ft | 450 kts | 127° |
| 2026-05-06 00:05 | -18.46066 | -45.95521 | 38190 ft | 451 kts | 127° |
| 2026-05-06 00:06 | -18.48960 | -45.89653 | 38191 ft | 451 kts | 127° |
| 2026-05-06 00:06 | -18.51831 | -45.83826 | 38189 ft | 450 kts | 127° |
| 2026-05-06 00:07 | -18.54719 | -45.77959 | 38191 ft | 451 kts | 127° |
| 2026-05-06 00:07 | -18.57612 | -45.72081 | 38194 ft | 452 kts | 127° |
| 2026-05-06 00:08 | -18.60495 | -45.66213 | 38191 ft | 452 kts | 127° |
| 2026-05-06 00:08 | -18.63395 | -45.60306 | 38180 ft | 453 kts | 127° |
| 2026-05-06 00:09 | -18.66281 | -45.54418 | 37975 ft | 451 kts | 127° |
| 2026-05-06 00:09 | -18.67709 | -45.51508 | 37124 ft | 453 kts | 126° |
| 2026-05-06 00:09 | -18.69185 | -45.48512 | 36067 ft | 456 kts | 125° |
| 2026-05-06 00:09 | -18.70636 | -45.45552 | 35410 ft | 452 kts | 124° |
| 2026-05-06 00:10 | -18.72079 | -45.42607 | 34654 ft | 451 kts | 124° |
| 2026-05-06 00:10 | -18.73497 | -45.39711 | 33870 ft | 448 kts | 123° |
| 2026-05-06 00:10 | -18.74940 | -45.36763 | 33031 ft | 444 kts | 123° |
| 2026-05-06 00:10 | -18.76352 | -45.33874 | 32291 ft | 443 kts | 122° |
| 2026-05-06 00:11 | -18.77756 | -45.31009 | 31475 ft | 447 kts | 122° |
| 2026-05-06 00:11 | -18.79172 | -45.28110 | 30919 ft | 443 kts | 122° |
| 2026-05-06 00:11 | -18.80582 | -45.25223 | 30279 ft | 442 kts | 121° |
| 2026-05-06 00:11 | -18.81981 | -45.22352 | 29672 ft | 437 kts | 121° |
| 2026-05-06 00:12 | -18.83365 | -45.19511 | 29086 ft | 433 kts | 121° |
| 2026-05-06 00:12 | -18.84735 | -45.16697 | 28501 ft | 429 kts | 121° |
| 2026-05-06 00:12 | -18.86096 | -45.13899 | 27913 ft | 425 kts | 121° |
| 2026-05-06 00:12 | -18.87428 | -45.11163 | 27336 ft | 421 kts | 121° |
| 2026-05-06 00:13 | -18.88762 | -45.08420 | 26756 ft | 418 kts | 121° |
| 2026-05-06 00:13 | -18.90087 | -45.05696 | 26166 ft | 416 kts | 121° |
| 2026-05-06 00:13 | -18.91405 | -45.02984 | 25595 ft | 414 kts | 120° |
| 2026-05-06 00:13 | -18.92721 | -45.00273 | 25015 ft | 411 kts | 120° |
| 2026-05-06 00:14 | -18.94024 | -44.97589 | 24424 ft | 410 kts | 120° |
| 2026-05-06 00:14 | -18.95324 | -44.94909 | 23826 ft | 409 kts | 120° |
| 2026-05-06 00:14 | -18.96621 | -44.92234 | 23163 ft | 407 kts | 120° |
| 2026-05-06 00:14 | -18.97899 | -44.89595 | 22653 ft | 402 kts | 120° |
| 2026-05-06 00:15 | -18.99167 | -44.86977 | 22071 ft | 398 kts | 120° |
| 2026-05-06 00:15 | -19.00422 | -44.84385 | 21500 ft | 394 kts | 120° |
| 2026-05-06 00:15 | -19.01652 | -44.81844 | 20935 ft | 391 kts | 120° |
| 2026-05-06 00:15 | -19.02889 | -44.79290 | 20331 ft | 390 kts | 119° |
| 2026-05-06 00:16 | -19.04118 | -44.76750 | 19755 ft | 386 kts | 119° |
| 2026-05-06 00:16 | -19.05339 | -44.74226 | 19214 ft | 383 kts | 119° |
| 2026-05-06 00:16 | -19.06551 | -44.71720 | 18654 ft | 381 kts | 118° |
| 2026-05-06 00:16 | -19.07774 | -44.69244 | 18034 ft | 378 kts | 121° |
| 2026-05-06 00:17 | -19.09224 | -44.66955 | 17477 ft | 372 kts | 128° |
| 2026-05-06 00:17 | -19.10792 | -44.64799 | 16935 ft | 368 kts | 128° |
| 2026-05-06 00:17 | -19.12348 | -44.62647 | 16389 ft | 365 kts | 128° |
| 2026-05-06 00:17 | -19.13876 | -44.60525 | 15843 ft | 362 kts | 128° |
| 2026-05-06 00:18 | -19.15405 | -44.58400 | 15295 ft | 360 kts | 128° |
| 2026-05-06 00:18 | -19.16900 | -44.56319 | 14725 ft | 359 kts | 127° |
| 2026-05-06 00:18 | -19.18405 | -44.54224 | 14205 ft | 357 kts | 127° |
| 2026-05-06 00:18 | -19.19897 | -44.52146 | 13608 ft | 355 kts | 127° |
| 2026-05-06 00:19 | -19.21387 | -44.50070 | 13120 ft | 350 kts | 127° |
| 2026-05-06 00:19 | -19.22858 | -44.48020 | 12598 ft | 347 kts | 127° |
| 2026-05-06 00:19 | -19.24304 | -44.46004 | 12076 ft | 343 kts | 127° |
| 2026-05-06 00:19 | -19.25742 | -44.43998 | 11559 ft | 341 kts | 127° |
| 2026-05-06 00:20 | -19.27170 | -44.42006 | 11038 ft | 338 kts | 127° |
| 2026-05-06 00:20 | -19.28588 | -44.40026 | 10549 ft | 335 kts | 127° |
| 2026-05-06 00:20 | -19.29978 | -44.38085 | 10296 ft | 325 kts | 127° |
| 2026-05-06 00:20 | -19.31298 | -44.36219 | 10205 ft | 309 kts | 124° |
| 2026-05-06 00:21 | -19.32330 | -44.34316 | 10064 ft | 295 kts | 114° |
| 2026-05-06 00:21 | -19.33055 | -44.32314 | 9696 ft | 291 kts | 108° |
| 2026-05-06 00:21 | -19.33694 | -44.30316 | 9483 ft | 282 kts | 108° |
| 2026-05-06 00:21 | -19.34330 | -44.28363 | 9129 ft | 279 kts | 109° |
| 2026-05-06 00:22 | -19.34965 | -44.26429 | 8764 ft | 277 kts | 109° |
| 2026-05-06 00:22 | -19.35572 | -44.24584 | 8412 ft | 274 kts | 109° |
| 2026-05-06 00:22 | -19.36213 | -44.22684 | 8047 ft | 272 kts | 113° |
| 2026-05-06 00:22 | -19.37181 | -44.20972 | 7688 ft | 271 kts | 129° |
| 2026-05-06 00:23 | -19.38541 | -44.19591 | 7244 ft | 273 kts | 140° |
| 2026-05-06 00:23 | -19.39977 | -44.18338 | 7003 ft | 255 kts | 140° |
| 2026-05-06 00:23 | -19.41268 | -44.17203 | 6889 ft | 228 kts | 139° |
| 2026-05-06 00:23 | -19.42409 | -44.16193 | 6816 ft | 209 kts | 139° |
| 2026-05-06 00:24 | -19.43557 | -44.15171 | 6843 ft | 217 kts | 139° |
| 2026-05-06 00:24 | -19.44669 | -44.14164 | 6839 ft | 203 kts | 138° |
| 2026-05-06 00:24 | -19.45706 | -44.13205 | 6617 ft | 195 kts | 137° |
| 2026-05-06 00:24 | -19.46727 | -44.12254 | 6136 ft | 196 kts | 137° |
| 2026-05-06 00:25 | -19.47755 | -44.11301 | 5676 ft | 190 kts | 137° |
| 2026-05-06 00:25 | -19.48695 | -44.10435 | 5511 ft | 169 kts | 137° |
| 2026-05-06 00:25 | -19.49534 | -44.09664 | 5378 ft | 151 kts | 136° |
| 2026-05-06 00:25 | -19.50297 | -44.08960 | 5184 ft | 142 kts | 136° |
| 2026-05-06 00:26 | -19.51033 | -44.08278 | 4883 ft | 140 kts | 135° |
| 2026-05-06 00:26 | -19.51759 | -44.07605 | 4555 ft | 140 kts | 136° |
| 2026-05-06 00:26 | -19.52487 | -44.06934 | 4365 ft | 138 kts | 136° |
| 2026-05-06 00:26 | -19.53213 | -44.06256 | 4367 ft | 142 kts | 136° |
| 2026-05-06 00:27 | -19.53953 | -44.05577 | 4386 ft | 138 kts | 136° |
| 2026-05-06 00:27 | -19.54649 | -44.04940 | 4323 ft | 127 kts | 136° |
| 2026-05-06 00:27 | -19.55323 | -44.04319 | 4346 ft | 130 kts | 136° |
| 2026-05-06 00:27 | -19.56006 | -44.03688 | 4374 ft | 130 kts | 136° |
| 2026-05-06 00:28 | -19.56692 | -44.03053 | 4295 ft | 129 kts | 136° |
| 2026-05-06 00:28 | -19.57357 | -44.02438 | 4047 ft | 128 kts | 136° |
| 2026-05-06 00:28 | -19.58025 | -44.01822 | 3871 ft | 128 kts | 136° |
| 2026-05-06 00:28 | -19.58705 | -44.01194 | 3697 ft | 130 kts | 136° |
| 2026-05-06 00:29 | -19.59390 | -44.00558 | 3521 ft | 130 kts | 136° |
| 2026-05-06 00:29 | -19.60072 | -43.99926 | 3351 ft | 131 kts | 137° |
| 2026-05-06 00:29 | -19.60766 | -43.99285 | 3168 ft | 132 kts | 137° |
| 2026-05-06 00:29 | -19.61451 | -43.98650 | 2996 ft | 131 kts | 138° |
| 2026-05-06 00:30 | -19.62134 | -43.98018 | 2882 ft | 130 kts | 138° |
| 2026-05-06 00:30 | -19.62815 | -43.97389 | 2812 ft | 129 kts | 138° |
| 2026-05-06 00:30 | -19.63362 | -43.96883 | 2808 ft | 80 kts | 139° |
| 2026-05-06 00:30 | -19.63595 | -43.96571 | 2808 ft | 28 kts | 107° |
| 2026-05-06 00:31 | -19.63577 | -43.96479 | 2809 ft | 7 kts | 351° |
| 2026-05-06 00:31 | -19.63525 | -43.96521 | 2809 ft | 14 kts | 336° |
| 2026-05-06 00:31 | -19.63419 | -43.96603 | 2810 ft | 24 kts | 320° |
| 2026-05-06 00:31 | -19.63297 | -43.96713 | 2809 ft | 15 kts | 332° |
| 2026-05-06 00:32 | -19.63246 | -43.96688 | 2809 ft | 10 kts | 49° |
| 2026-05-06 00:32 | -19.63169 | -43.96618 | 2809 ft | 17 kts | 1° |
| 2026-05-06 00:32 | -19.63092 | -43.96678 | 2807 ft | 18 kts | 319° |
| 2026-05-06 00:32 | -19.63029 | -43.96731 | 2807 ft | 2 kts | 335° |
| 2026-05-06 00:33 | -19.62989 | -43.96710 | 2811 ft | 11 kts | 49° |
| 2026-05-06 00:33 | -19.62976 | -43.96694 | 2808 ft | 6 kts | 49° |
| 2026-05-06 00:33 | -19.62962 | -43.96678 | 2809 ft | 0 kts | 50° |